Time;durP1;ratioP1;P1;durP2;ratioP2;P2;SDS_P1;SDS_P2;PMS_P1;PMS_P2;Temp;Humidity;BMP_temperature;BMP_pressure;BME280_temperature;BME280_humidity;BME280_pressure;Samples;Min_cycle;Max_cycle;Signal;HPM_P1;HPM_P2
2023/10/31 00:00:52;;;;;;;;;;;;;;;21.14;44.39;94188.41;10461702;28;2602;-55
2023/10/31 00:05:52;;;;;;;;;;;;;;;21.12;44.53;94196.63;10480760;28;2657;-57
2023/10/31 00:10:52;;;;;;;;;;;;;;;21.10;44.71;94201.44;10481145;28;5134;-54
2023/10/31 00:15:55;;;;;;;;;;;;;;;21.08;44.39;94205.47;10478329;28;3029;-56
2023/10/31 00:20:55;;;;;;;;;;;;;;;21.06;44.75;94198.66;10480019;28;2681;-55
2023/10/31 00:25:55;;;;;;;;;;;;;;;21.04;44.75;94200.81;10479855;28;2563;-56
2023/10/31 00:30:56;;;;;;;;;;;;;;;21.02;44.68;94208.25;10478716;28;2532;-56
2023/10/31 00:35:56;;;;;;;;;;;;;;;21.00;45.12;94213.03;10476914;28;2808;-57
2023/10/31 00:40:56;;;;;;;;;;;;;;;20.99;44.98;94216.00;10459681;28;2659;-56
2023/10/31 00:45:56;;;;;;;;;;;;;;;20.97;44.95;94216.31;10478514;28;2618;-57
2023/10/31 00:50:57;;;;;;;;;;;;;;;20.96;44.57;94209.47;10457350;28;2602;-57
2023/10/31 00:55:57;;;;;;;;;;;;;;;20.95;44.92;94199.25;10480809;28;2679;-59
2023/10/31 01:00:57;;;;;;;;;;;;;;;20.94;44.86;94211.66;10479428;28;2611;-56
2023/10/31 01:05:57;;;;;;;;;;;;;;;20.91;44.87;94207.03;10473975;28;2583;-57
2023/10/31 01:10:58;;;;;;;;;;;;;;;20.90;45.12;94202.84;10473728;28;5170;-56
2023/10/31 01:15:58;;;;;;;;;;;;;;;20.89;45.00;94213.69;10477372;28;2626;-57
2023/10/31 01:20:58;;;;;;;;;;;;;;;20.88;45.01;94222.66;10472285;28;2662;-55
2023/10/31 01:25:59;;;;;;;;;;;;;;;20.87;44.66;94226.41;10483263;28;2746;-56
2023/10/31 01:30:59;;;;;;;;;;;;;;;20.85;44.96;94220.66;10462493;28;2613;-59
2023/10/31 01:35:59;;;;;;;;;;;;;;;20.84;44.75;94221.72;10452746;28;2622;-57
2023/10/31 01:40:59;;;;;;;;;;;;;;;20.81;45.10;94231.03;10459653;28;2546;-56
2023/10/31 01:46:00;;;;;;;;;;;;;;;20.78;45.18;94234.28;10478650;28;3015;-57
2023/10/31 01:51:01;;;;;;;;;;;;;;;20.79;45.17;94235.06;10474460;28;2649;-57
2023/10/31 01:56:01;;;;;;;;;;;;;;;20.78;45.18;94234.28;10473196;28;2749;-57
2023/10/31 02:01:03;;;;;;;;;;;;;;;20.77;44.83;94227.47;10470566;28;2661;-58
2023/10/31 02:06:03;;;;;;;;;;;;;;;20.77;44.76;94229.34;10467913;28;3424;-58
2023/10/31 02:11:05;;;;;;;;;;;;;;;20.74;44.85;94243.91;10473571;28;5232;-57
2023/10/31 02:16:06;;;;;;;;;;;;;;;20.73;44.88;94254.75;10468669;28;2551;-57
2023/10/31 02:21:06;;;;;;;;;;;;;;;20.72;44.69;94253.19;10466749;28;2550;-58
2023/10/31 02:26:06;;;;;;;;;;;;;;;20.71;44.96;94265.56;10472766;28;2699;-58
2023/10/31 02:31:06;;;;;;;;;;;;;;;20.71;45.00;94275.34;10456864;28;2595;-58
2023/10/31 02:36:07;;;;;;;;;;;;;;;20.68;44.91;94286.47;10458523;28;2533;-57
2023/10/31 02:41:07;;;;;;;;;;;;;;;20.68;44.92;94287.28;10477370;28;2594;-55
2023/10/31 02:46:07;;;;;;;;;;;;;;;20.65;45.04;94285.25;10472591;28;2589;-57
2023/10/31 02:51:08;;;;;;;;;;;;;;;20.66;44.96;94281.53;10471905;28;2657;-55
2023/10/31 02:56:08;;;;;;;;;;;;;;;20.64;44.94;94267.91;10477385;28;2571;-57
2023/10/31 03:01:08;;;;;;;;;;;;;;;20.63;45.03;94274.25;10467292;28;2656;-57
2023/10/31 03:06:08;;;;;;;;;;;;;;;20.63;44.77;94287.41;10471457;28;2614;-56
2023/10/31 03:11:09;;;;;;;;;;;;;;;20.61;44.95;94297.47;10464688;28;5170;-57
2023/10/31 03:16:09;;;;;;;;;;;;;;;20.61;45.02;94294.09;10463638;28;2837;-56
2023/10/31 03:21:11;;;;;;;;;;;;;;;20.60;44.96;94317.00;10476641;28;2511;-57
2023/10/31 03:26:12;;;;;;;;;;;;;;;20.58;45.09;94305.22;10479718;28;2535;-58
2023/10/31 03:31:12;;;;;;;;;;;;;;;20.58;44.90;94302.59;10477066;28;2622;-57
2023/10/31 03:36:12;;;;;;;;;;;;;;;20.57;45.11;94279.97;10476316;28;3044;-57
2023/10/31 03:41:13;;;;;;;;;;;;;;;20.57;44.96;94291.28;10462347;28;2607;-57
2023/10/31 03:46:13;;;;;;;;;;;;;;;20.56;44.96;94292.38;10477269;28;2678;-57
2023/10/31 03:51:13;;;;;;;;;;;;;;;20.56;44.83;94283.69;10467182;28;2601;-57
2023/10/31 03:56:14;;;;;;;;;;;;;;;20.54;44.90;94291.13;10486438;28;2683;-58
2023/10/31 04:01:14;;;;;;;;;;;;;;;20.53;44.71;94319.28;10480286;28;2726;-57
2023/10/31 04:06:14;;;;;;;;;;;;;;;20.52;45.01;94323.03;10482975;28;2667;-58
2023/10/31 04:11:14;;;;;;;;;;;;;;;20.51;44.81;94310.94;10477212;28;5118;-58
2023/10/31 04:16:15;;;;;;;;;;;;;;;20.51;44.96;94312.78;10475873;28;2677;-56
2023/10/31 04:21:15;;;;;;;;;;;;;;;20.50;45.07;94327.03;10458499;28;2643;-57
2023/10/31 04:26:17;;;;;;;;;;;;;;;20.49;45.01;94349.16;10483894;28;2701;-57
2023/10/31 04:31:19;;;;;;;;;;;;;;;20.49;44.75;94357.84;10483103;28;2591;-56
2023/10/31 04:36:20;;;;;;;;;;;;;;;20.47;44.62;94357.38;10483682;28;2614;-56
2023/10/31 04:41:20;;;;;;;;;;;;;;;20.45;44.75;94351.63;10479530;28;3070;-57
2023/10/31 04:46:20;;;;;;;;;;;;;;;20.46;44.95;94347.94;10477649;28;2611;-56
2023/10/31 04:51:20;;;;;;;;;;;;;;;20.46;44.60;94341.91;10481924;28;2591;-57
2023/10/31 04:56:21;;;;;;;;;;;;;;;20.45;44.84;94350.84;10475206;28;2606;-58
2023/10/31 05:01:21;;;;;;;;;;;;;;;20.43;44.83;94335.38;10481654;28;2741;-57
2023/10/31 05:06:21;;;;;;;;;;;;;;;20.41;44.98;94345.44;10468555;28;2652;-57
2023/10/31 05:11:21;;;;;;;;;;;;;;;20.42;45.23;94351.47;10474853;28;2767;-57
2023/10/31 05:16:22;;;;;;;;;;;;;;;20.48;44.79;94358.16;10478621;28;2606;-57
2023/10/31 05:21:23;;;;;;;;;;;;;;;20.54;44.19;94364.81;10471536;28;2500;-57
2023/10/31 05:26:23;;;;;;;;;;;;;;;20.59;44.61;94386.50;10494676;28;2545;-57
2023/10/31 05:31:24;;;;;;;;;;;;;;;20.64;44.23;94390.88;10466060;28;2594;-55
2023/10/31 05:36:24;;;;;;;;;;;;;;;20.70;44.18;94405.44;10478205;28;2566;-57
2023/10/31 05:41:25;;;;;;;;;;;;;;;20.73;44.06;94405.59;10462107;28;2600;-57
2023/10/31 05:46:26;;;;;;;;;;;;;;;20.79;44.21;94404.38;10476456;28;2698;-59
2023/10/31 05:51:29;;;;;;;;;;;;;;;20.83;44.24;94418.50;10448537;28;2557;-58
2023/10/31 05:56:29;;;;;;;;;;;;;;;20.87;43.92;94422.06;10474257;28;2629;-58
2023/10/31 06:01:29;;;;;;;;;;;;;;;20.92;44.11;94429.03;10475557;28;2564;-59
2023/10/31 06:06:32;;;;;;;;;;;;;;;20.95;43.92;94433.69;10476267;28;2568;-56
2023/10/31 06:11:34;;;;;;;;;;;;;;;20.98;44.27;94430.44;10464284;28;5128;-58
2023/10/31 06:16:43;;;;;;;;;;;;;;;21.06;43.64;94429.75;10472496;28;2642;-58
2023/10/31 06:21:43;;;;;;;;;;;;;;;21.08;43.87;94434.69;10471210;28;2676;-56
2023/10/31 06:26:43;;;;;;;;;;;;;;;21.10;43.63;94443.06;10481009;28;2805;-59
2023/10/31 06:31:44;;;;;;;;;;;;;;;21.10;43.62;94459.66;10475340;28;2661;-56
2023/10/31 06:36:44;;;;;;;;;;;;;;;21.13;43.29;94455.59;10478638;28;2598;-56
2023/10/31 06:41:44;;;;;;;;;;;;;;;21.12;43.27;94454.06;10475500;28;2642;-58
2023/10/31 06:46:44;;;;;;;;;;;;;;;21.18;43.35;94453.63;10472502;28;2693;-58
2023/10/31 06:51:45;;;;;;;;;;;;;;;21.17;43.18;94456.53;10471641;28;2683;-58
2023/10/31 06:56:45;;;;;;;;;;;;;;;21.22;43.04;94469.59;10478581;28;2579;-59
2023/10/31 07:01:46;;;;;;;;;;;;;;;21.22;43.01;94488.03;10461547;28;2598;-58
2023/10/31 07:06:46;;;;;;;;;;;;;;;21.26;42.66;94497.66;10457572;28;2559;-56
2023/10/31 07:11:46;;;;;;;;;;;;;;;21.35;42.59;94498.44;10486199;28;5059;-59
2023/10/31 07:16:48;;;;;;;;;;;;;;;21.32;43.19;94501.69;10487313;28;2559;-58
2023/10/31 07:21:48;;;;;;;;;;;;;;;21.37;42.31;94503.41;10482734;28;2753;-58
2023/10/31 07:26:48;;;;;;;;;;;;;;;21.39;42.23;94493.34;10484837;28;2627;-58
2023/10/31 07:31:51;;;;;;;;;;;;;;;21.43;42.48;94484.47;10476471;28;2679;-58
2023/10/31 07:36:51;;;;;;;;;;;;;;;21.45;42.34;94479.69;10485825;28;2613;-58
2023/10/31 07:41:51;;;;;;;;;;;;;;;21.46;42.74;94489.16;10485332;28;2745;-56
2023/10/31 07:46:52;;;;;;;;;;;;;;;21.49;42.76;94490.41;10483635;28;2547;-58
2023/10/31 07:51:52;;;;;;;;;;;;;;;21.51;42.50;94518.03;10476220;28;2748;-57
2023/10/31 07:56:52;;;;;;;;;;;;;;;21.53;42.27;94512.44;10483761;28;2671;-57
2023/10/31 08:01:52;;;;;;;;;;;;;;;21.52;42.56;94509.00;10480703;28;2707;-58
2023/10/31 08:06:53;;;;;;;;;;;;;;;21.55;42.24;94494.44;10480880;28;2661;-57
2023/10/31 08:11:53;;;;;;;;;;;;;;;21.52;42.50;94500.31;10480171;28;5154;-57
2023/10/31 08:16:53;;;;;;;;;;;;;;;21.48;42.78;94518.63;10478656;28;2629;-57
2023/10/31 08:21:53;;;;;;;;;;;;;;;21.47;42.70;94530.28;10482076;28;2538;-57
2023/10/31 08:26:54;;;;;;;;;;;;;;;21.40;42.47;94566.06;10477382;28;2793;-58
2023/10/31 08:31:54;;;;;;;;;;;;;;;21.38;42.51;94571.63;10476632;28;2559;-58
2023/10/31 08:36:56;;;;;;;;;;;;;;;21.39;42.50;94590.88;10474432;28;2574;-56
2023/10/31 08:41:57;;;;;;;;;;;;;;;21.37;42.61;94604.34;10478128;28;2848;-56
2023/10/31 08:46:57;;;;;;;;;;;;;;;21.35;42.48;94611.78;10478418;28;2692;-57
2023/10/31 08:52:02;;;;;;;;;;;;;;;21.32;42.41;94608.97;10475343;28;2627;-58
2023/10/31 08:57:02;;;;;;;;;;;;;;;21.30;42.16;94625.09;10469329;28;2654;-56
2023/10/31 09:02:03;;;;;;;;;;;;;;;21.29;42.40;94620.16;10480009;28;2707;-57
2023/10/31 09:07:03;;;;;;;;;;;;;;;21.28;42.14;94629.13;10469960;28;2675;-56
2023/10/31 09:12:04;;;;;;;;;;;;;;;21.27;42.68;94641.53;10469318;28;2622;-56
2023/10/31 09:17:04;;;;;;;;;;;;;;;21.25;42.79;94630.50;10474210;28;2622;-55
2023/10/31 09:22:04;;;;;;;;;;;;;;;21.26;42.79;94632.06;10477284;28;2645;-57
2023/10/31 09:27:05;;;;;;;;;;;;;;;21.23;43.36;94647.69;10475193;28;2700;-57
2023/10/31 09:32:06;;;;;;;;;;;;;;;21.22;42.72;94627.72;10467796;28;2610;-56
2023/10/31 09:37:06;;;;;;;;;;;;;;;21.21;42.59;94647.22;10472641;28;2584;-56
2023/10/31 09:42:07;;;;;;;;;;;;;;;21.21;42.66;94668.31;10479722;28;2547;-56
2023/10/31 09:47:07;;;;;;;;;;;;;;;21.18;42.72;94667.06;10478016;28;2693;-57
2023/10/31 09:52:08;;;;;;;;;;;;;;;21.16;42.52;94661.34;10472610;28;2551;-57
2023/10/31 09:57:09;;;;;;;;;;;;;;;21.13;43.20;94653.22;10474157;28;2660;-58
2023/10/31 10:02:09;;;;;;;;;;;;;;;21.13;43.49;94655.88;10458809;28;2483;-57
2023/10/31 10:07:13;;;;;;;;;;;;;;;21.10;43.22;94661.75;10473956;28;2782;-58
2023/10/31 10:12:13;;;;;;;;;;;;;;;21.12;42.84;94680.69;10462383;28;5103;-56
2023/10/31 10:17:23;;;;;;;;;;;;;;;21.08;42.92;94697.06;10468188;28;2625;-58
2023/10/31 10:22:25;;;;;;;;;;;;;;;21.06;43.58;94706.38;10476704;28;2625;-58
2023/10/31 10:27:25;;;;;;;;;;;;;;;21.05;43.28;94697.69;10461436;28;2972;-58
2023/10/31 10:32:25;;;;;;;;;;;;;;;21.02;44.10;94705.41;10475893;28;2524;-58
2023/10/31 10:37:30;;;;;;;;;;;;;;;21.02;43.20;94706.19;10476718;28;2635;-57
2023/10/31 10:42:33;;;;;;;;;;;;;;;21.00;43.68;94705.69;10470954;28;2611;-58
2023/10/31 10:47:36;;;;;;;;;;;;;;;20.99;43.44;94703.34;10466598;28;2606;-58
2023/10/31 10:52:39;;;;;;;;;;;;;;;20.98;43.57;94701.78;10457781;28;2617;-58
2023/10/31 10:57:42;;;;;;;;;;;;;;;20.95;44.31;94703.19;10469775;28;2562;-58
2023/10/31 11:02:42;;;;;;;;;;;;;;;20.94;43.94;94696.34;10474006;28;2575;-59
2023/10/31 11:07:45;;;;;;;;;;;;;;;20.94;43.49;94698.19;10466195;28;2662;-58
2023/10/31 11:12:45;;;;;;;;;;;;;;;20.96;46.98;94698.69;10461387;28;5527;-58
2023/10/31 11:17:45;;;;;;;;;;;;;;;20.91;45.58;94691.69;10461038;28;2566;-57
2023/10/31 11:22:46;;;;;;;;;;;;;;;20.88;45.78;94692.28;10468340;28;2629;-58
2023/10/31 11:27:46;;;;;;;;;;;;;;;20.85;45.76;94692.91;10468391;28;2564;-59
2023/10/31 11:32:48;;;;;;;;;;;;;;;20.87;46.11;94690.75;10470652;28;2833;-59
2023/10/31 11:37:49;;;;;;;;;;;;;;;20.87;45.09;94690.75;10458601;28;2677;-58
2023/10/31 11:42:50;;;;;;;;;;;;;;;20.86;45.60;94683.91;10463280;28;2610;-59
2023/10/31 11:47:50;;;;;;;;;;;;;;;20.85;45.49;94681.56;10466271;28;2609;-59
2023/10/31 11:53:06;;;;;;;;;;;;;;;20.82;45.42;94680.31;10465415;28;2665;-58
2023/10/31 11:58:19;;;;;;;;;;;;;;;20.81;45.24;94686.66;10469494;28;2633;-57
2023/10/31 12:03:20;;;;;;;;;;;;;;;20.80;45.36;94679.06;10472289;28;2570;-58
2023/10/31 12:08:24;;;;;;;;;;;;;;;20.78;45.90;94673.31;10474655;28;5059;-58
2023/10/31 12:13:25;;;;;;;;;;;;;;;20.74;45.48;94672.34;10437372;28;2667;-58
2023/10/31 12:18:25;;;;;;;;;;;;;;;20.74;45.57;94675.78;10441728;28;2603;-58
2023/10/31 12:23:25;;;;;;;;;;;;;;;20.75;45.61;94666.03;10474516;28;2623;-58
2023/10/31 12:28:26;;;;;;;;;;;;;;;20.74;45.98;94659.97;10455828;28;2833;-58
2023/10/31 12:33:26;;;;;;;;;;;;;;;20.74;46.55;94665.25;10477128;28;2679;-58
2023/10/31 12:38:27;;;;;;;;;;;;;;;20.73;45.86;94671.56;10460210;28;2662;-58
2023/10/31 12:43:29;;;;;;;;;;;;;;;20.72;45.94;94670.03;10442652;28;2589;-61
2023/10/31 12:48:29;;;;;;;;;;;;;;;20.72;45.05;94677.94;10474441;28;2625;-59
2023/10/31 12:53:31;;;;;;;;;;;;;;;20.73;45.35;94676.09;10476727;28;2638;-58
2023/10/31 12:58:31;;;;;;;;;;;;;;;20.73;45.57;94687.38;10471026;28;2793;-56
2023/10/31 13:03:31;;;;;;;;;;;;;;;20.75;46.11;94692.34;10475688;28;2741;-59
2023/10/31 13:08:33;;;;;;;;;;;;;;;20.73;45.53;94699.78;10454234;28;5106;-58
2023/10/31 13:13:34;;;;;;;;;;;;;;;20.73;46.19;94711.06;10461745;28;2612;-58
2023/10/31 13:18:35;;;;;;;;;;;;;;;20.71;46.65;94707.19;10471151;28;2648;-58
2023/10/31 13:23:37;;;;;;;;;;;;;;;20.70;46.69;94716.16;10473833;28;2560;-59
2023/10/31 13:28:39;;;;;;;;;;;;;;;20.68;46.71;94726.22;10486779;28;2528;-58
2023/10/31 13:33:39;;;;;;;;;;;;;;;20.68;47.01;94739.38;10481049;28;2701;-58
2023/10/31 13:38:40;;;;;;;;;;;;;;;20.67;46.61;94735.22;10471718;28;2653;-58
2023/10/31 13:43:41;;;;;;;;;;;;;;;20.66;46.86;94737.06;10478406;28;2547;-58
2023/10/31 13:48:41;;;;;;;;;;;;;;;20.66;46.79;94744.97;10471552;28;2947;-59
2023/10/31 13:53:42;;;;;;;;;;;;;;;20.63;46.97;94750.81;10473914;28;2607;-58
2023/10/31 13:58:42;;;;;;;;;;;;;;;20.64;46.51;94770.81;10454581;28;2614;-58
2023/10/31 14:03:43;;;;;;;;;;;;;;;20.63;46.30;94758.69;10458938;28;2668;-58
2023/10/31 14:08:43;;;;;;;;;;;;;;;20.66;46.90;94773.13;10471972;28;5111;-58
2023/10/31 14:13:44;;;;;;;;;;;;;;;20.65;46.29;94774.97;10478361;28;2638;-58
2023/10/31 14:18:46;;;;;;;;;;;;;;;20.61;46.40;94784.56;10469945;28;2562;-58
2023/10/31 14:23:53;;;;;;;;;;;;;;;20.59;46.14;94788.56;10447195;28;2654;-59
2023/10/31 14:28:53;;;;;;;;;;;;;;;20.57;45.97;94791.50;10471187;28;2674;-58
2023/10/31 14:33:53;;;;;;;;;;;;;;;20.54;45.94;94799.22;10463251;28;2630;-59
2023/10/31 14:38:54;;;;;;;;;;;;;;;20.54;45.91;94797.34;10472324;28;2572;-58
2023/10/31 14:43:54;;;;;;;;;;;;;;;20.55;45.40;94801.53;10451771;28;2661;-58
2023/10/31 14:48:54;;;;;;;;;;;;;;;20.59;45.19;94814.88;10476892;28;2725;-59
2023/10/31 14:53:54;;;;;;;;;;;;;;;20.61;45.07;94815.38;10460601;28;2673;-59
2023/10/31 14:58:55;;;;;;;;;;;;;;;20.64;44.87;94818.22;10488252;28;2618;-58
2023/10/31 15:03:55;;;;;;;;;;;;;;;20.68;44.82;94829.69;10469051;28;2675;-58
2023/10/31 15:08:56;;;;;;;;;;;;;;;20.71;45.27;94826.47;10476951;28;4968;-58
2023/10/31 15:13:56;;;;;;;;;;;;;;;20.76;44.98;94823.72;10474684;28;2927;-58
2023/10/31 15:18:57;;;;;;;;;;;;;;;20.80;45.38;94824.69;10463090;28;2936;-58
2023/10/31 15:23:57;;;;;;;;;;;;;;;20.81;44.96;94839.41;10474178;28;2604;-58
2023/10/31 15:28:57;;;;;;;;;;;;;;;20.85;45.15;94844.88;10480975;28;2674;-58
2023/10/31 15:33:58;;;;;;;;;;;;;;;20.88;44.55;94849.53;10482100;28;2623;-58
2023/10/31 15:38:58;;;;;;;;;;;;;;;20.94;44.74;94846.50;10483628;28;2549;-58
2023/10/31 15:43:58;;;;;;;;;;;;;;;20.98;44.69;94844.84;10492089;28;2631;-58
2023/10/31 15:48:59;;;;;;;;;;;;;;;20.98;44.67;94854.59;10483557;28;2685;-58
2023/10/31 15:53:59;;;;;;;;;;;;;;;21.09;44.26;94858.59;10478362;28;2572;-59
2023/10/31 15:59:02;;;;;;;;;;;;;;;21.11;44.05;94874.09;10475999;28;2647;-59
2023/10/31 16:04:03;;;;;;;;;;;;;;;21.10;44.13;94873.34;10485277;28;2544;-58
2023/10/31 16:09:06;;;;;;;;;;;;;;;21.14;44.04;94881.44;10465589;28;2614;-59
2023/10/31 16:14:06;;;;;;;;;;;;;;;21.18;44.09;94882.41;10470057;28;2631;-58
2023/10/31 16:19:07;;;;;;;;;;;;;;;21.19;43.81;94902.38;10462791;28;2597;-58
2023/10/31 16:24:07;;;;;;;;;;;;;;;21.23;43.86;94900.72;10479727;28;2573;-58
2023/10/31 16:29:13;;;;;;;;;;;;;;;21.24;43.74;94910.19;10483646;28;2775;-58
2023/10/31 16:34:14;;;;;;;;;;;;;;;21.27;43.87;94920.91;10461653;28;2730;-58
2023/10/31 16:39:14;;;;;;;;;;;;;;;21.29;43.51;94929.31;10476084;28;2661;-58
2023/10/31 16:44:14;;;;;;;;;;;;;;;21.30;43.64;94930.09;10475883;28;2694;-58
2023/10/31 16:49:16;;;;;;;;;;;;;;;21.29;43.72;94941.72;10474084;28;2614;-58
2023/10/31 16:54:16;;;;;;;;;;;;;;;21.35;43.35;94949.19;10459711;28;2658;-58
2023/10/31 16:59:16;;;;;;;;;;;;;;;21.37;43.19;94954.19;10470671;28;2656;-58
2023/10/31 17:04:17;;;;;;;;;;;;;;;21.33;43.49;94961.16;10469395;28;2584;-58
2023/10/31 17:09:17;;;;;;;;;;;;;;;21.39;43.16;94971.25;10465360;28;5051;-59
2023/10/31 17:14:18;;;;;;;;;;;;;;;20.47;40.82;94989.16;10486283;28;2569;-58
2023/10/31 17:19:18;;;;;;;;;;;;;;;19.38;40.83;95001.09;10478015;28;2732;-57
2023/10/31 17:24:18;;;;;;;;;;;;;;;18.76;41.95;95007.34;10476564;28;2688;-54
2023/10/31 17:29:18;;;;;;;;;;;;;;;18.12;42.80;95012.91;10463941;28;2651;-58
2023/10/31 17:34:19;;;;;;;;;;;;;;;18.19;43.00;95017.84;10477379;28;2635;-59
2023/10/31 17:39:19;;;;;;;;;;;;;;;18.99;42.93;95026.78;10461383;28;2625;-57
2023/10/31 17:44:19;;;;;;;;;;;;;;;19.20;43.31;95031.53;10471694;28;2584;-57
2023/10/31 17:49:20;;;;;;;;;;;;;;;19.56;43.21;95044.25;10478298;28;3026;-56
2023/10/31 17:54:20;;;;;;;;;;;;;;;19.78;42.98;95041.81;10479077;28;2539;-57
2023/10/31 17:59:23;;;;;;;;;;;;;;;20.13;42.71;95046.56;10472986;28;2721;-57
2023/10/31 18:04:23;;;;;;;;;;;;;;;20.38;42.41;95056.69;10470226;28;2679;-56
2023/10/31 18:09:23;;;;;;;;;;;;;;;20.52;42.23;95052.25;10460276;28;5194;-56
2023/10/31 18:14:23;;;;;;;;;;;;;;;20.68;42.17;95069.34;10472186;28;2606;-56
2023/10/31 18:19:24;;;;;;;;;;;;;;;20.83;41.80;95074.34;10471012;28;2654;-54
2023/10/31 18:24:24;;;;;;;;;;;;;;;20.94;41.52;95078.34;10472012;28;2528;-56
2023/10/31 18:29:24;;;;;;;;;;;;;;;21.13;41.42;95093.31;10456463;28;2559;-57
2023/10/31 18:34:25;;;;;;;;;;;;;;;21.17;41.15;95096.94;10472289;28;2524;-56
2023/10/31 18:39:26;;;;;;;;;;;;;;;21.21;41.61;95103.19;10471438;28;2609;-64
2023/10/31 18:44:26;;;;;;;;;;;;;;;21.26;41.89;95103.88;10457447;28;2889;-62
2023/10/31 18:49:26;;;;;;;;;;;;;;;21.31;42.22;95108.28;10457408;28;2587;-65
2023/10/31 18:54:27;;;;;;;;;;;;;;;21.37;42.52;95109.75;10458675;28;2671;-60
2023/10/31 18:59:27;;;;;;;;;;;;;;;21.43;42.50;95113.84;10463218;28;2748;-58
2023/10/31 19:04:27;;;;;;;;;;;;;;;21.50;42.09;95116.84;10459261;28;2610;-58
2023/10/31 19:09:27;;;;;;;;;;;;;;;21.54;42.43;95123.09;10471861;28;5157;-58
2023/10/31 19:14:30;;;;;;;;;;;;;;;21.54;42.79;95131.78;10482833;28;2639;-59
2023/10/31 19:19:30;;;;;;;;;;;;;;;21.60;42.29;95140.38;10480723;28;2691;-58
2023/10/31 19:24:30;;;;;;;;;;;;;;;21.63;42.64;95147.72;10466125;28;2654;-59
2023/10/31 19:29:30;;;;;;;;;;;;;;;21.66;42.38;95147.13;10481356;28;2585;-57
2023/10/31 19:34:31;;;;;;;;;;;;;;;21.64;42.78;95163.25;10481537;28;2614;-57
2023/10/31 19:39:31;;;;;;;;;;;;;;;21.68;42.78;95174.75;10478131;28;2582;-57
2023/10/31 19:44:31;;;;;;;;;;;;;;;21.70;42.96;95172.63;10449176;28;2602;-59
2023/10/31 19:49:32;;;;;;;;;;;;;;;21.70;42.80;95174.50;10465578;28;2605;-60
2023/10/31 19:54:32;;;;;;;;;;;;;;;21.75;42.89;95179.66;10482993;28;2574;-62
2023/10/31 19:59:32;;;;;;;;;;;;;;;21.72;43.16;95177.63;10481893;28;2643;-65
2023/10/31 20:04:32;;;;;;;;;;;;;;;21.71;43.36;95192.66;10488602;28;2580;-65
2023/10/31 20:09:33;;;;;;;;;;;;;;;21.71;43.20;95179.47;10477447;28;5235;-67
2023/10/31 20:14:33;;;;;;;;;;;;;;;21.69;43.10;95194.81;10483292;28;2566;-62
2023/10/31 20:19:33;;;;;;;;;;;;;;;21.71;42.96;95205.06;10488259;28;2605;-62
2023/10/31 20:24:34;;;;;;;;;;;;;;;21.72;43.10;95198.72;10478222;28;2638;-60
2023/10/31 20:29:34;;;;;;;;;;;;;;;21.69;42.65;95194.03;10481453;28;2562;-60
2023/10/31 20:34:34;;;;;;;;;;;;;;;21.69;42.97;95202.72;10496456;28;2609;-62
2023/10/31 20:39:34;;;;;;;;;;;;;;;21.65;42.50;95198.31;10477805;28;2621;-61
2023/10/31 20:44:35;;;;;;;;;;;;;;;21.68;43.08;95197.72;10468836;28;2815;-60
2023/10/31 20:49:35;;;;;;;;;;;;;;;21.64;42.89;95194.09;10467917;28;2648;-60
2023/10/31 20:54:36;;;;;;;;;;;;;;;21.64;42.79;95204.66;10478095;28;2562;-62
2023/10/31 20:59:36;;;;;;;;;;;;;;;21.62;42.43;95207.59;10466375;28;2626;-60
2023/10/31 21:04:36;;;;;;;;;;;;;;;21.65;42.56;95208.88;10471011;28;2607;-61
2023/10/31 21:09:36;;;;;;;;;;;;;;;21.62;42.55;95220.00;10472843;28;5032;-60
2023/10/31 21:14:37;;;;;;;;;;;;;;;21.62;42.67;95223.41;10487174;28;2748;-60
2023/10/31 21:19:37;;;;;;;;;;;;;;;21.62;42.29;95222.63;10474568;28;2528;-60
2023/10/31 21:24:39;;;;;;;;;;;;;;;21.62;42.21;95228.69;10464530;28;2656;-60
2023/10/31 21:29:39;;;;;;;;;;;;;;;21.65;42.56;95230.75;10471121;28;2632;-60
2023/10/31 21:34:39;;;;;;;;;;;;;;;21.62;42.41;95231.34;10476885;28;2579;-60
2023/10/31 21:39:40;;;;;;;;;;;;;;;21.61;42.33;95232.41;10469880;28;2599;-64
2023/10/31 21:44:40;;;;;;;;;;;;;;;21.61;42.27;95223.72;10458024;28;2556;-57
2023/10/31 21:49:40;;;;;;;;;;;;;;;21.65;42.37;95235.25;10476453;28;2819;-62
2023/10/31 21:54:41;;;;;;;;;;;;;;;21.65;42.52;95245.78;10455805;28;2668;-59
2023/10/31 21:59:41;;;;;;;;;;;;;;;21.63;42.72;95242.66;10457329;28;2757;-62
2023/10/31 22:04:42;;;;;;;;;;;;;;;21.64;42.24;95247.66;10464015;28;2634;-67
2023/10/31 22:09:42;;;;;;;;;;;;;;;21.63;42.03;95237.41;10453134;28;5058;-61
2023/10/31 22:14:43;;;;;;;;;;;;;;;21.60;42.00;95240.59;10469636;28;2603;-62
2023/10/31 22:19:43;;;;;;;;;;;;;;;21.62;41.84;95238.44;10439475;28;2734;-61
2023/10/31 22:24:44;;;;;;;;;;;;;;;21.63;42.26;95255.84;10457675;28;2544;-61
2023/10/31 22:29:44;;;;;;;;;;;;;;;21.64;42.26;95252.91;10464606;28;2673;-66
2023/10/31 22:34:44;;;;;;;;;;;;;;;21.61;42.99;95264.06;10472091;28;2575;-66
2023/10/31 22:39:45;;;;;;;;;;;;;;;21.64;42.43;95266.09;10469191;28;2813;-65
2023/10/31 22:44:45;;;;;;;;;;;;;;;21.63;42.45;95263.78;10469844;28;2635;-66
2023/10/31 22:49:45;;;;;;;;;;;;;;;21.61;42.53;95258.00;10472674;28;2607;-64
2023/10/31 22:54:45;;;;;;;;;;;;;;;21.61;42.29;95263.28;10471699;28;2533;-68
2023/10/31 22:59:46;;;;;;;;;;;;;;;21.58;42.62;95275.19;10469008;28;2547;-67
2023/10/31 23:04:46;;;;;;;;;;;;;;;21.58;42.48;95271.75;10461890;28;2556;-63
2023/10/31 23:09:47;;;;;;;;;;;;;;;21.59;42.84;95270.69;10453641;28;2689;-59
2023/10/31 23:14:47;;;;;;;;;;;;;;;21.57;42.51;95267.56;10473567;28;2564;-66
2023/10/31 23:19:47;;;;;;;;;;;;;;;21.56;42.58;95273.91;10475345;28;2566;-61
2023/10/31 23:24:47;;;;;;;;;;;;;;;21.55;42.54;95267.09;10471189;28;2668;-61
2023/10/31 23:29:48;;;;;;;;;;;;;;;21.51;42.48;95264.25;10471319;28;2743;-61
2023/10/31 23:34:48;;;;;;;;;;;;;;;21.50;42.92;95275.06;10453617;28;2719;-61
2023/10/31 23:39:49;;;;;;;;;;;;;;;21.45;42.89;95275.94;10457136;28;2633;-60
2023/10/31 23:44:49;;;;;;;;;;;;;;;21.44;43.09;95277.03;10454436;28;2606;-60
2023/10/31 23:49:50;;;;;;;;;;;;;;;21.44;43.08;95277.03;10475780;28;2591;-64
2023/10/31 23:54:51;;;;;;;;;;;;;;;21.44;43.74;95270.97;10477950;28;2563;-60
2023/10/31 23:59:52;;;;;;;;;;;;;;;21.42;43.44;95273.09;10491337;28;2731;-63
